createdAt,value
2023-03-08T00:00:24.136Z,4.8
2023-03-08T00:01:32.452Z,4.7
2023-03-08T00:02:48.131Z,4.7
2023-03-08T00:03:55.339Z,4.8
2023-03-08T00:05:05.270Z,4.9
2023-03-08T00:06:13.612Z,4.8
2023-03-08T00:07:32.277Z,4.8
2023-03-08T00:08:39.421Z,4.8
2023-03-08T00:09:46.240Z,4.8
2023-03-08T00:10:53.260Z,4.8
2023-03-08T00:12:02.036Z,4.9
2023-03-08T00:13:19.714Z,4.8
2023-03-08T00:14:26.750Z,4.7
2023-03-08T00:15:33.804Z,4.7
2023-03-08T00:16:40.855Z,4.8
2023-03-08T00:17:53.907Z,4.7
2023-03-08T00:19:02.178Z,4.9
2023-03-08T00:20:12.372Z,4.9
2023-03-08T00:21:19.650Z,4.8
2023-03-08T00:22:26.783Z,4.7
2023-03-08T00:23:33.901Z,4.7
2023-03-08T00:24:45.262Z,4.8
2023-03-08T00:25:52.287Z,4.9
2023-03-08T00:27:03.515Z,4.9
2023-03-08T00:28:11.488Z,4.8
2023-03-08T00:29:18.653Z,4.8
2023-03-08T00:30:25.676Z,4.8
2023-03-08T00:31:35.294Z,4.8
2023-03-08T00:32:43.278Z,4.7
2023-03-08T00:33:50.860Z,4.7
2023-03-08T00:34:57.935Z,4.7
2023-03-08T00:36:04.983Z,4.7
2023-03-08T00:37:22.763Z,4.6
2023-03-08T00:38:30.357Z,4.8
2023-03-08T00:39:45.997Z,4.7
2023-03-08T00:40:55.920Z,4.8
2023-03-08T00:42:05.389Z,4.7
2023-03-08T00:43:12.412Z,4.8
2023-03-08T00:44:21.954Z,4.7
2023-03-08T00:45:29.064Z,4.6
2023-03-08T00:46:36.294Z,4.7
2023-03-08T00:47:44.176Z,4.7
2023-03-08T00:48:58.209Z,4.6
2023-03-08T00:50:05.533Z,4.6
2023-03-08T00:51:17.528Z,4.6
2023-03-08T00:52:24.631Z,4.6
2023-03-08T00:53:52.112Z,4.7
2023-03-08T00:55:04.589Z,4.7
2023-03-08T00:56:15.004Z,4.7
2023-03-08T00:57:30.461Z,4.7
2023-03-08T00:58:37.533Z,4.6
2023-03-08T00:59:44.534Z,4.6
2023-03-08T01:00:51.919Z,4.6
2023-03-08T01:01:58.863Z,4.7
2023-03-08T01:03:08.534Z,4.8
2023-03-08T01:04:18.409Z,4.6
2023-03-08T01:05:41.820Z,4.5
2023-03-08T01:06:51.567Z,4.6
2023-03-08T01:07:58.577Z,4.6
2023-03-08T01:09:05.895Z,4.7
2023-03-08T01:10:13.612Z,4.5
2023-03-08T01:11:29.214Z,4.5
2023-03-08T01:12:54.381Z,4.6
2023-03-08T01:14:05.744Z,4.6
2023-03-08T01:15:12.704Z,4.6
2023-03-08T01:16:34.736Z,4.5
2023-03-08T01:17:42.112Z,4.6
2023-03-08T01:18:49.442Z,4.5
2023-03-08T01:19:56.680Z,4.6
2023-03-08T01:21:03.616Z,4.5
2023-03-08T01:22:13.896Z,4.5
2023-03-08T01:23:29.716Z,4.4
2023-03-08T01:24:51.164Z,4.5
2023-03-08T01:26:15.259Z,4.5
2023-03-08T01:27:34.608Z,4.5
2023-03-08T01:28:42.228Z,4.6
2023-03-08T01:30:05.020Z,4.7
2023-03-08T01:31:12.278Z,4.5
2023-03-08T01:32:30.884Z,4.6
2023-03-08T01:33:37.872Z,4.4
2023-03-08T01:34:44.984Z,4.5
2023-03-08T01:35:52.692Z,4.4
2023-03-08T01:37:13.099Z,4.5
2023-03-08T01:38:20.288Z,4.5
2023-03-08T01:39:28.221Z,4.5
2023-03-08T01:40:35.814Z,4.6
2023-03-08T01:41:49.399Z,4.6
2023-03-08T01:42:56.593Z,4.6
2023-03-08T01:44:11.361Z,4.5
2023-03-08T01:45:31.975Z,4.5
2023-03-08T01:46:49.722Z,4.6
2023-03-08T01:47:58.708Z,4.6
2023-03-08T01:49:05.778Z,4.5
2023-03-08T01:50:28.481Z,4.6
2023-03-08T01:51:43.604Z,4.6
2023-03-08T01:52:51.774Z,4.4
2023-03-08T01:53:59.378Z,4.5
2023-03-08T01:55:07.221Z,4.4
2023-03-08T01:56:22.560Z,4.3
2023-03-08T01:57:35.548Z,4.3
2023-03-08T01:58:44.679Z,4.3
2023-03-08T01:59:58.569Z,4.5
2023-03-08T02:01:11.836Z,4.3
2023-03-08T02:02:27.217Z,4.3
2023-03-08T02:03:36.416Z,4.3
2023-03-08T02:04:43.506Z,4.3
2023-03-08T02:05:51.426Z,4.3
2023-03-08T02:07:07.818Z,4.4
2023-03-08T02:08:15.439Z,4.2
2023-03-08T02:09:25.492Z,4.1
2023-03-08T02:10:33.069Z,4.2
2023-03-08T02:11:40.159Z,4.2
2023-03-08T02:12:47.184Z,4.1
2023-03-08T02:13:59.457Z,4.2
2023-03-08T02:15:06.491Z,4.1
2023-03-08T02:16:14.546Z,4.2
2023-03-08T02:17:36.382Z,4.1
2023-03-08T02:18:43.571Z,4.1
2023-03-08T02:19:55.948Z,4.1
2023-03-08T02:21:13.105Z,4
2023-03-08T02:22:21.612Z,4.2
2023-03-08T02:23:29.409Z,4.2
2023-03-08T02:24:50.324Z,4.1
2023-03-08T02:26:06.813Z,4.1
2023-03-08T02:27:16.156Z,4.1
2023-03-08T02:28:30.548Z,4.1
2023-03-08T02:29:44.023Z,3.9
2023-03-08T02:30:51.800Z,4
2023-03-08T02:32:10.369Z,3.9
2023-03-08T02:33:19.962Z,4
2023-03-08T02:34:28.566Z,4
2023-03-08T02:35:35.910Z,4.1
2023-03-08T02:36:44.098Z,4
2023-03-08T02:38:10.717Z,4
2023-03-08T02:39:28.806Z,4
2023-03-08T02:40:46.939Z,4.1
2023-03-08T02:41:58.437Z,4
2023-03-08T02:43:07.586Z,4
2023-03-08T02:44:17.605Z,4
2023-03-08T02:45:28.406Z,4
2023-03-08T02:46:37.194Z,4.1
2023-03-08T02:47:56.317Z,4
2023-03-08T02:49:06.093Z,4
2023-03-08T02:50:13.165Z,4.1
2023-03-08T02:51:20.523Z,3.9
2023-03-08T02:52:30.584Z,4
2023-03-08T02:53:37.527Z,4
2023-03-08T02:54:47.401Z,3.9
2023-03-08T02:55:54.568Z,4
2023-03-08T02:57:01.537Z,4
2023-03-08T02:58:09.295Z,4
2023-03-08T02:59:16.321Z,4
2023-03-08T03:00:23.649Z,4
2023-03-08T03:01:31.045Z,4
2023-03-08T03:02:40.561Z,4
2023-03-08T03:03:48.304Z,3.9
2023-03-08T03:05:04.612Z,4
2023-03-08T03:06:12.975Z,3.9
2023-03-08T03:07:26.555Z,3.9
2023-03-08T03:08:33.569Z,3.9
2023-03-08T03:09:41.243Z,4
2023-03-08T03:10:51.308Z,4
2023-03-08T03:11:58.743Z,4
2023-03-08T03:13:07.239Z,4
2023-03-08T03:14:14.266Z,4
2023-03-08T03:15:21.693Z,3.9
2023-03-08T03:16:31.471Z,3.9
2023-03-08T03:17:49.577Z,3.9
2023-03-08T03:18:56.572Z,3.9
2023-03-08T03:20:11.887Z,3.8
2023-03-08T03:21:20.762Z,4
2023-03-08T03:22:28.435Z,4.1
2023-03-08T03:23:35.411Z,4.1
2023-03-08T03:24:45.691Z,3.8
2023-03-08T03:25:52.736Z,4
2023-03-08T03:27:02.601Z,4
2023-03-08T03:28:10.016Z,4
2023-03-08T03:29:20.827Z,4.2
2023-03-08T03:30:29.620Z,4.1
2023-03-08T03:31:41.845Z,4.2
2023-03-08T03:32:49.787Z,4.2
2023-03-08T03:33:56.910Z,4.1
2023-03-08T03:35:03.772Z,4
2023-03-08T03:36:11.462Z,4.1
2023-03-08T03:37:19.145Z,4.2
2023-03-08T03:38:39.078Z,4.2
2023-03-08T03:39:46.839Z,3.8
2023-03-08T03:40:54.867Z,3.9
2023-03-08T03:42:09.643Z,3.9
2023-03-08T03:43:16.638Z,3.8
2023-03-08T03:44:23.713Z,3.9
2023-03-08T03:45:34.590Z,3.9
2023-03-08T03:46:46.543Z,4
2023-03-08T03:47:53.575Z,3.9
2023-03-08T03:49:03.667Z,3.9
2023-03-08T03:50:10.990Z,3.9
2023-03-08T03:51:20.798Z,3.9
2023-03-08T03:52:27.833Z,3.8
2023-03-08T03:53:34.836Z,3.9
2023-03-08T03:54:42.149Z,3.9
2023-03-08T03:55:50.334Z,3.9
2023-03-08T03:56:58.237Z,3.9
2023-03-08T03:58:05.277Z,3.8
2023-03-08T03:59:12.313Z,3.8
2023-03-08T04:00:20.420Z,3.8
2023-03-08T04:01:27.503Z,4
2023-03-08T04:02:44.669Z,3.9
2023-03-08T04:03:57.384Z,3.9
2023-03-08T04:05:04.738Z,4
2023-03-08T04:06:11.835Z,3.9
2023-03-08T04:07:18.917Z,3.8
2023-03-08T04:08:27.793Z,3.8
2023-03-08T04:09:34.956Z,3.8
2023-03-08T04:10:43.738Z,3.8
2023-03-08T04:11:56.621Z,3.7
2023-03-08T04:13:04.775Z,3.7
2023-03-08T04:14:11.841Z,3.7
2023-03-08T04:15:22.909Z,3.8
2023-03-08T04:16:30.038Z,3.7
2023-03-08T04:17:37.698Z,3.8
2023-03-08T04:18:47.826Z,3.8
2023-03-08T04:20:04.393Z,3.7
2023-03-08T04:21:14.837Z,3.7
2023-03-08T04:22:30.394Z,3.7
2023-03-08T04:23:55.701Z,3.7
2023-03-08T04:25:03.657Z,3.8
2023-03-08T04:26:18.931Z,3.7
2023-03-08T04:27:33.584Z,3.8
2023-03-08T04:28:44.455Z,3.8
2023-03-08T04:30:01.135Z,3.7
2023-03-08T04:31:09.262Z,3.6
2023-03-08T04:32:21.829Z,3.7
2023-03-08T04:33:28.961Z,3.8
2023-03-08T04:34:44.110Z,3.8
2023-03-08T04:35:52.256Z,3.8
2023-03-08T04:36:59.474Z,3.9
2023-03-08T04:38:14.635Z,3.7
2023-03-08T04:39:42.652Z,3.7
2023-03-08T04:40:52.779Z,3.6
2023-03-08T04:42:09.762Z,3.6
2023-03-08T04:43:29.004Z,3.6
2023-03-08T04:44:40.831Z,3.7
2023-03-08T04:45:48.467Z,3.6
2023-03-08T04:47:04.296Z,3.6
2023-03-08T04:48:19.944Z,3.6
2023-03-08T04:49:27.048Z,3.6
2023-03-08T04:50:36.446Z,3.6
2023-03-08T04:51:43.479Z,3.5
2023-03-08T04:52:50.512Z,3.7
2023-03-08T04:53:57.634Z,3.6
2023-03-08T04:55:04.961Z,3.6
2023-03-08T04:56:13.849Z,3.6
2023-03-08T04:57:21.318Z,3.8
2023-03-08T04:58:29.582Z,3.8
2023-03-08T04:59:37.032Z,3.7
2023-03-08T05:00:44.145Z,3.7
2023-03-08T05:01:51.315Z,3.5
2023-03-08T05:03:06.952Z,3.5
2023-03-08T05:04:20.194Z,3.5
2023-03-08T05:05:27.259Z,3.6
2023-03-08T05:06:53.528Z,3.6
2023-03-08T05:08:09.025Z,3.5
2023-03-08T05:09:20.675Z,3.6
2023-03-08T05:10:28.887Z,3.5
2023-03-08T05:11:44.937Z,3.6
2023-03-08T05:12:52.858Z,3.6
2023-03-08T05:14:08.705Z,3.6
2023-03-08T05:15:15.794Z,3.6
2023-03-08T05:16:23.752Z,3.5
2023-03-08T05:17:36.287Z,3.5
2023-03-08T05:18:50.594Z,3.6
2023-03-08T05:19:57.652Z,3.6
2023-03-08T05:21:07.327Z,3.5
2023-03-08T05:22:21.879Z,3.5
2023-03-08T05:23:29.984Z,3.5
2023-03-08T05:24:37.051Z,3.6
2023-03-08T05:25:51.487Z,3.5
2023-03-08T05:26:59.369Z,3.6
2023-03-08T05:28:10.046Z,3.4
2023-03-08T05:29:24.402Z,3.6
2023-03-08T05:30:33.406Z,3.5
2023-03-08T05:31:40.779Z,3.4
2023-03-08T05:32:50.837Z,3.5
2023-03-08T05:33:58.477Z,3.4
2023-03-08T05:35:05.788Z,3.6
2023-03-08T05:36:13.834Z,3.4
2023-03-08T05:37:21.055Z,3.4
2023-03-08T05:38:29.540Z,3.3
2023-03-08T05:39:36.615Z,3.3
2023-03-08T05:40:51.383Z,3.4
2023-03-08T05:41:59.328Z,3.4
2023-03-08T05:43:15.465Z,3.4
2023-03-08T05:44:28.164Z,3.4
2023-03-08T05:45:35.860Z,3.3
2023-03-08T05:46:47.347Z,3.4
2023-03-08T05:47:54.486Z,3.4
2023-03-08T05:49:02.730Z,3.5
2023-03-08T05:50:12.496Z,3.4
2023-03-08T05:51:31.424Z,3.4
2023-03-08T05:52:38.533Z,3.4
2023-03-08T05:53:51.230Z,3.3
2023-03-08T05:54:59.278Z,3.4
2023-03-08T05:56:15.497Z,3.2
2023-03-08T05:57:26.096Z,3.3
2023-03-08T05:58:34.252Z,3.4
2023-03-08T05:59:45.742Z,3.3
2023-03-08T06:01:14.094Z,3.4
2023-03-08T06:02:24.576Z,3.3
2023-03-08T06:03:32.542Z,3.3
2023-03-08T06:04:44.036Z,3.3
2023-03-08T06:05:54.160Z,3.5
2023-03-08T06:07:01.187Z,3.5
2023-03-08T06:08:09.638Z,3.5
2023-03-08T06:09:17.228Z,3.6
2023-03-08T06:10:27.210Z,3.4
2023-03-08T06:11:34.392Z,3.5
2023-03-08T06:12:41.395Z,3.6
2023-03-08T06:13:48.532Z,3.5
2023-03-08T06:14:58.933Z,3.6
2023-03-08T06:16:09.410Z,3.6
2023-03-08T06:17:29.717Z,3.6
2023-03-08T06:18:36.841Z,3.7
2023-03-08T06:19:50.871Z,3.7
2023-03-08T06:20:59.448Z,3.7
2023-03-08T06:22:10.404Z,3.7
2023-03-08T06:23:20.574Z,3.8
2023-03-08T06:24:27.662Z,3.7
2023-03-08T06:25:34.790Z,3.6
2023-03-08T06:26:42.677Z,3.7
2023-03-08T06:27:50.200Z,3.7
2023-03-08T06:28:57.285Z,3.6
2023-03-08T06:30:08.073Z,3.7
2023-03-08T06:32:25.781Z,3.6
2023-03-08T06:33:33.080Z,3.7
2023-03-08T06:34:40.370Z,3.7
2023-03-08T06:35:47.820Z,3.7
2023-03-08T06:37:04.219Z,3.8
2023-03-08T06:38:20.417Z,3.9
2023-03-08T06:39:27.495Z,3.9
2023-03-08T06:40:35.283Z,3.9
2023-03-08T06:41:42.423Z,3.9
2023-03-08T06:42:52.752Z,3.9
2023-03-08T06:43:59.785Z,3.9
2023-03-08T06:45:06.826Z,3.8
2023-03-08T06:46:12.333Z,3.8
2023-03-08T06:47:20.680Z,3.8
2023-03-08T06:48:25.678Z,3.8
2023-03-08T06:49:30.729Z,3.8
2023-03-08T06:50:35.905Z,3.8
2023-03-08T06:51:41.019Z,3.8
2023-03-08T06:52:46.517Z,3.8
2023-03-08T06:53:53.348Z,4
2023-03-08T06:55:00.503Z,4
2023-03-08T06:56:07.400Z,4.2
2023-03-08T06:57:14.457Z,4.2
2023-03-08T06:58:22.921Z,4.3
2023-03-08T06:59:30.193Z,4.5
2023-03-08T07:00:37.201Z,4.5
2023-03-08T07:01:44.692Z,4.4
2023-03-08T07:02:51.608Z,4.5
2023-03-08T07:03:59.002Z,4.5
2023-03-08T07:05:09.781Z,4.5
2023-03-08T07:06:19.788Z,4.6
2023-03-08T07:07:27.197Z,4.7
2023-03-08T07:08:38.072Z,4.6
2023-03-08T07:09:45.110Z,4.6
2023-03-08T07:10:52.648Z,4.5
2023-03-08T07:11:59.692Z,4.5
2023-03-08T07:13:06.827Z,4.7
2023-03-08T07:14:16.771Z,4.8
2023-03-08T07:15:23.832Z,4.9
2023-03-08T07:16:34.170Z,4.9
2023-03-08T07:17:41.199Z,4.9
2023-03-08T07:18:49.190Z,4.9
2023-03-08T07:19:56.578Z,4.9
2023-03-08T07:21:04.637Z,5.1
2023-03-08T07:22:11.831Z,5
2023-03-08T07:23:23.537Z,5.2
2023-03-08T07:24:30.534Z,5.1
2023-03-08T07:25:38.357Z,5.2
2023-03-08T07:26:45.458Z,5.3
2023-03-08T07:27:52.534Z,5.2
2023-03-08T07:29:01.798Z,5.3
2023-03-08T07:30:09.161Z,5.5
2023-03-08T07:31:19.289Z,5.5
2023-03-08T07:32:27.850Z,5.6
2023-03-08T07:33:34.769Z,5.7
2023-03-08T07:34:44.854Z,5.7
2023-03-08T07:35:53.084Z,5.6
2023-03-08T07:36:59.954Z,5.6
2023-03-08T07:38:07.075Z,5.8
2023-03-08T07:39:16.985Z,5.8
2023-03-08T07:40:24.905Z,6.2
2023-03-08T07:41:32.039Z,6.3
2023-03-08T07:42:39.976Z,6.4
2023-03-08T07:43:47.020Z,6.2
2023-03-08T07:44:54.658Z,6.5
2023-03-08T07:46:03.036Z,6.5
2023-03-08T07:47:10.000Z,6.4
2023-03-08T07:48:17.361Z,6.4
2023-03-08T07:49:26.126Z,6.4
2023-03-08T07:50:33.337Z,6.2
2023-03-08T07:51:41.363Z,6.6
2023-03-08T07:52:51.547Z,6.7
2023-03-08T07:53:59.410Z,6.7
2023-03-08T07:55:08.803Z,6.7
2023-03-08T07:56:15.818Z,6.8
2023-03-08T07:57:25.844Z,6.8
2023-03-08T07:58:32.853Z,7
2023-03-08T07:59:39.914Z,7.1
2023-03-08T08:00:47.814Z,7.2
2023-03-08T08:01:54.879Z,7
2023-03-08T08:03:01.981Z,7.3
2023-03-08T08:04:11.688Z,7.4
2023-03-08T08:05:20.484Z,7.3
2023-03-08T08:06:30.219Z,7.3
2023-03-08T08:07:40.071Z,7.4
2023-03-08T08:08:47.119Z,7.3
2023-03-08T08:09:54.192Z,7.1
2023-03-08T08:11:01.366Z,7
2023-03-08T08:12:16.452Z,7.1
2023-03-08T08:13:23.491Z,7.1
2023-03-08T08:14:32.116Z,7.4
2023-03-08T08:15:40.349Z,7.6
2023-03-08T08:16:47.994Z,7.5
2023-03-08T08:17:56.242Z,7.5
2023-03-08T08:19:05.347Z,7.3
2023-03-08T08:20:16.788Z,7.6
2023-03-08T08:21:27.455Z,7.7
2023-03-08T08:22:34.410Z,7.7
2023-03-08T08:23:41.639Z,7.8
2023-03-08T08:24:48.743Z,7.8
2023-03-08T08:25:55.949Z,7.7
2023-03-08T08:27:05.402Z,7.7
2023-03-08T08:28:15.784Z,7.7
2023-03-08T08:29:29.542Z,7.5
2023-03-08T08:30:37.731Z,7.4
2023-03-08T08:31:54.324Z,7.3
2023-03-08T08:33:00.903Z,7.4
2023-03-08T08:34:09.150Z,7.1
2023-03-08T08:35:18.490Z,7.3
2023-03-08T08:36:28.226Z,7.3
2023-03-08T08:37:36.900Z,7.4
2023-03-08T08:38:45.406Z,7.4
2023-03-08T08:39:57.180Z,7.8
2023-03-08T08:41:04.461Z,7.7
2023-03-08T08:42:11.548Z,7.6
2023-03-08T08:43:18.692Z,7.7
2023-03-08T08:44:25.876Z,7.8
2023-03-08T08:45:34.124Z,7.9
2023-03-08T08:46:42.370Z,7.9
2023-03-08T08:47:50.157Z,7.9
2023-03-08T08:49:01.692Z,8.1
2023-03-08T08:50:13.684Z,8.2
2023-03-08T08:51:19.032Z,8.1
2023-03-08T08:52:26.037Z,8.2
2023-03-08T08:53:34.349Z,8.1
2023-03-08T08:54:42.149Z,7.8
2023-03-08T08:55:50.047Z,7.9
2023-03-08T08:56:59.017Z,7.6
2023-03-08T08:58:08.040Z,7.8
2023-03-08T08:59:15.434Z,7.7
2023-03-08T09:00:22.486Z,7.9
2023-03-08T09:01:29.657Z,7.9
2023-03-08T09:02:37.047Z,7.9
2023-03-08T09:03:44.266Z,7.7
2023-03-08T09:04:51.368Z,7.8
2023-03-08T09:05:58.373Z,7.9
2023-03-08T09:07:05.376Z,7.9
2023-03-08T09:08:14.192Z,8
2023-03-08T09:09:24.948Z,8
2023-03-08T09:10:33.315Z,8
2023-03-08T09:11:53.596Z,8.1
2023-03-08T09:12:51.957Z,8.1
2023-03-08T09:14:03.931Z,8.2
2023-03-08T09:15:11.715Z,8.3
2023-03-08T09:16:19.975Z,8.1
2023-03-08T09:17:29.661Z,7.8
2023-03-08T09:18:38.156Z,7.9
2023-03-08T09:19:48.779Z,8.1
2023-03-08T09:20:55.963Z,8.2
2023-03-08T09:22:03.088Z,8.2
2023-03-08T09:23:10.254Z,8.1
2023-03-08T09:24:17.680Z,8.4
2023-03-08T09:25:24.650Z,8.3
2023-03-08T09:26:31.889Z,8.1
2023-03-08T09:27:40.038Z,8.2
2023-03-08T09:28:47.877Z,8.4
2023-03-08T09:29:56.211Z,8.4
2023-03-08T09:31:10.000Z,8.4
2023-03-08T09:32:18.955Z,8.5
2023-03-08T09:33:27.984Z,8.6
2023-03-08T09:34:55.562Z,8.7
2023-03-08T09:36:04.598Z,8.5
2023-03-08T09:37:13.265Z,8.5
2023-03-08T09:38:21.731Z,8.4
2023-03-08T09:39:31.733Z,8.4
2023-03-08T09:40:42.790Z,8.3
2023-03-08T09:41:53.091Z,8.3
2023-03-08T09:43:07.824Z,8.1
2023-03-08T09:44:19.614Z,8.3
2023-03-08T09:45:40.688Z,8.4
2023-03-08T09:46:48.905Z,8.6
2023-03-08T09:48:07.564Z,8.3
2023-03-08T09:49:21.979Z,8.5
2023-03-08T09:50:29.951Z,8.6
2023-03-08T09:51:47.141Z,8.7
2023-03-08T09:52:56.253Z,8.4
2023-03-08T09:54:08.559Z,8.8
2023-03-08T09:55:18.509Z,9.1
2023-03-08T09:56:28.639Z,9.1
2023-03-08T09:57:35.709Z,9.1
2023-03-08T09:58:43.025Z,9.1
2023-03-08T09:59:58.264Z,9
2023-03-08T10:01:05.360Z,8.9
2023-03-08T10:02:25.216Z,9
2023-03-08T10:03:42.316Z,9
2023-03-08T10:05:12.656Z,9.2
2023-03-08T10:06:10.540Z,9.2
2023-03-08T10:07:29.198Z,9.3
2023-03-08T10:08:38.811Z,9.3
2023-03-08T10:09:58.996Z,9.5
2023-03-08T10:11:18.027Z,9.5
2023-03-08T10:12:27.946Z,9.5
2023-03-08T10:13:43.170Z,9.6
2023-03-08T10:14:53.370Z,9.9
2023-03-08T10:16:01.372Z,9.8
2023-03-08T10:17:16.792Z,9.6
2023-03-08T10:18:26.570Z,9.6
2023-03-08T10:19:33.971Z,9.7
2023-03-08T10:20:44.603Z,9.8
2023-03-08T10:21:52.095Z,10
2023-03-08T10:22:59.125Z,10
2023-03-08T10:24:07.679Z,10
2023-03-08T10:25:17.332Z,9.9
2023-03-08T10:26:32.323Z,9.9
2023-03-08T10:27:39.488Z,10
2023-03-08T10:28:48.615Z,10.1
2023-03-08T10:29:56.535Z,10.2
2023-03-08T10:31:03.681Z,9.9
2023-03-08T10:32:21.366Z,9.7
2023-03-08T10:33:28.555Z,9.6
2023-03-08T10:34:38.132Z,9.6
2023-03-08T10:35:45.331Z,9.5
2023-03-08T10:37:00.253Z,9.6
2023-03-08T10:38:07.439Z,9.7
2023-03-08T10:39:14.625Z,9.7
2023-03-08T10:40:21.790Z,9.6
2023-03-08T10:41:28.888Z,9.7
2023-03-08T10:42:38.217Z,9.8
2023-03-08T10:43:55.508Z,9.9
2023-03-08T10:45:03.354Z,10
2023-03-08T10:46:15.626Z,9.9
2023-03-08T10:47:28.093Z,9.8
2023-03-08T10:48:35.128Z,9.9
2023-03-08T10:49:42.111Z,9.9
2023-03-08T10:50:49.333Z,9.9
2023-03-08T10:52:01.399Z,9.7
2023-03-08T10:53:08.499Z,9.6
2023-03-08T10:54:21.372Z,9.3
2023-03-08T10:55:28.403Z,9.2
2023-03-08T10:56:35.530Z,8.9
2023-03-08T10:57:43.050Z,8.7
2023-03-08T10:58:56.587Z,8.5
2023-03-08T11:00:04.393Z,8.6
2023-03-08T11:01:16.663Z,8.7
2023-03-08T11:02:31.447Z,8.7
2023-03-08T11:03:38.532Z,8.8
2023-03-08T11:04:48.454Z,8.8
2023-03-08T11:05:55.357Z,8.9
2023-03-08T11:07:02.616Z,8.9
2023-03-08T11:08:14.753Z,9
2023-03-08T11:09:21.757Z,8.9
2023-03-08T11:10:34.940Z,8.8
2023-03-08T11:11:43.524Z,8.9
2023-03-08T11:12:50.630Z,8.8
2023-03-08T11:14:05.412Z,9
2023-03-08T11:15:12.455Z,9
2023-03-08T11:16:20.183Z,8.9
2023-03-08T11:17:32.144Z,9
2023-03-08T11:18:39.379Z,9.2
2023-03-08T11:19:49.923Z,9.3
2023-03-08T11:21:04.798Z,9.2
2023-03-08T11:22:17.260Z,9
2023-03-08T11:23:34.424Z,9.2
2023-03-08T11:24:46.500Z,9.1
2023-03-08T11:26:03.699Z,9.1
2023-03-08T11:27:18.299Z,8.9
2023-03-08T11:28:30.552Z,8.9
2023-03-08T11:29:45.467Z,9.1
2023-03-08T11:31:03.371Z,9.1
2023-03-08T11:32:16.729Z,9
2023-03-08T11:33:28.891Z,9.1
2023-03-08T11:34:40.817Z,9.2
2023-03-08T11:35:57.990Z,9.2
2023-03-08T11:37:10.400Z,9.1
2023-03-08T11:38:21.100Z,9.1
2023-03-08T11:39:28.386Z,9.2
2023-03-08T11:40:38.448Z,9
2023-03-08T11:41:54.800Z,9
2023-03-08T11:43:10.459Z,9.2
2023-03-08T11:44:17.595Z,9.1
2023-03-08T11:45:29.872Z,8.9
2023-03-08T11:46:44.722Z,8.9
2023-03-08T11:47:56.736Z,8.8
2023-03-08T11:49:11.910Z,8.9
2023-03-08T11:50:29.040Z,8.8
2023-03-08T11:51:43.691Z,8.9
2023-03-08T11:52:59.049Z,9
2023-03-08T11:54:11.168Z,9
2023-03-08T11:55:28.515Z,8.9
2023-03-08T11:56:45.672Z,8.9
2023-03-08T11:57:58.671Z,9
2023-03-08T11:59:13.527Z,8.8
2023-03-08T12:00:25.666Z,9.2
2023-03-08T12:01:37.841Z,9.2
2023-03-08T12:02:49.930Z,9.4
2023-03-08T12:03:57.357Z,9.3
2023-03-08T12:05:04.319Z,9
2023-03-08T12:06:28.141Z,9.1
2023-03-08T12:07:31.761Z,8.9
2023-03-08T12:08:46.806Z,8.8
2023-03-08T12:09:56.856Z,8.7
2023-03-08T12:11:09.712Z,8.8
2023-03-08T12:12:26.759Z,8.8
2023-03-08T12:13:34.732Z,8.8
2023-03-08T12:14:41.980Z,8.8
2023-03-08T12:15:54.440Z,8.7
2023-03-08T12:17:11.661Z,8.7
2023-03-08T12:18:27.292Z,8.7
2023-03-08T12:19:41.039Z,8.7
2023-03-08T12:20:50.776Z,8.7
2023-03-08T12:21:58.109Z,8.9
2023-03-08T12:23:08.057Z,9
2023-03-08T12:24:21.473Z,8.9
2023-03-08T12:25:33.459Z,8.9
2023-03-08T12:26:46.385Z,8.9
2023-03-08T12:27:58.570Z,9
2023-03-08T12:29:15.870Z,9.1
2023-03-08T12:30:27.872Z,9
2023-03-08T12:31:45.004Z,9.1
2023-03-08T12:32:52.056Z,9.1
2023-03-08T12:33:59.285Z,8.9
2023-03-08T12:35:07.079Z,8.9
2023-03-08T12:36:28.165Z,8.9
2023-03-08T12:37:40.159Z,8.9
2023-03-08T12:38:47.201Z,9.2
2023-03-08T12:39:54.108Z,9.1
2023-03-08T12:41:04.339Z,8.9
2023-03-08T12:42:27.002Z,8.9
2023-03-08T12:43:42.044Z,8.8
2023-03-08T12:44:50.832Z,8.9
2023-03-08T12:45:58.298Z,8.8
2023-03-08T12:47:05.308Z,9
2023-03-08T12:48:17.863Z,9.1
2023-03-08T12:49:28.008Z,9.1
2023-03-08T12:50:37.551Z,9
2023-03-08T12:51:44.676Z,8.9
2023-03-08T12:52:53.357Z,8.9
2023-03-08T12:54:01.228Z,8.7
2023-03-08T12:55:11.016Z,8.8
2023-03-08T12:56:23.760Z,8.8
2023-03-08T12:57:35.886Z,8.8
2023-03-08T12:58:49.011Z,8.7
2023-03-08T12:59:59.594Z,8.7
2023-03-08T13:01:09.760Z,8.7
2023-03-08T13:02:27.111Z,8.8
2023-03-08T13:03:34.223Z,8.8
2023-03-08T13:04:42.857Z,8.8
2023-03-08T13:05:49.235Z,8.8
2023-03-08T13:06:59.448Z,8.7
2023-03-08T13:08:12.954Z,8.9
2023-03-08T13:09:25.609Z,8.9
2023-03-08T13:10:43.785Z,9
2023-03-08T13:11:53.820Z,8.9
2023-03-08T13:13:03.577Z,8.9
2023-03-08T13:14:13.241Z,8.9
2023-03-08T13:15:25.256Z,8.9
2023-03-08T13:16:32.363Z,9
2023-03-08T13:17:41.976Z,8.9
2023-03-08T13:18:55.673Z,8.7
2023-03-08T13:20:12.946Z,8.7
2023-03-08T13:21:25.215Z,8.8
2023-03-08T13:22:35.838Z,8.8
2023-03-08T13:23:56.401Z,8.8
2023-03-08T13:25:07.295Z,8.9
2023-03-08T13:26:19.424Z,8.7
2023-03-08T13:27:37.615Z,8.6
2023-03-08T13:28:55.501Z,8.6
2023-03-08T13:30:02.672Z,8.6
2023-03-08T13:31:19.881Z,8.6
2023-03-08T13:32:27.023Z,8.7
2023-03-08T13:33:33.912Z,8.6
2023-03-08T13:34:40.854Z,8.6
2023-03-08T13:35:51.545Z,8.6
2023-03-08T13:37:03.727Z,8.4
2023-03-08T13:38:21.156Z,8.5
2023-03-08T13:39:28.794Z,8.6
2023-03-08T13:40:35.956Z,8.7
2023-03-08T13:41:43.297Z,8.7
2023-03-08T13:42:55.032Z,8.5
2023-03-08T13:44:05.276Z,8.6
2023-03-08T13:45:18.885Z,8.6
2023-03-08T13:46:26.338Z,8.6
2023-03-08T13:47:33.403Z,8.8
2023-03-08T13:48:40.520Z,8.7
2023-03-08T13:49:51.299Z,8.8
2023-03-08T13:50:57.489Z,8.7
2023-03-08T13:52:04.648Z,8.7
2023-03-08T13:53:16.656Z,8.7
2023-03-08T13:54:25.399Z,8.7
2023-03-08T13:55:37.823Z,8.6
2023-03-08T13:56:51.304Z,8.7
2023-03-08T13:58:03.579Z,8.7
2023-03-08T13:59:10.785Z,8.7
2023-03-08T14:00:24.429Z,8.7
2023-03-08T14:01:32.084Z,8.7
2023-03-08T14:02:39.093Z,8.7
2023-03-08T14:03:46.158Z,8.7
2023-03-08T14:04:53.740Z,8.7
2023-03-08T14:06:06.379Z,8.7
2023-03-08T14:07:24.224Z,8.7
2023-03-08T14:08:34.177Z,8.7
2023-03-08T14:09:42.281Z,8.6
2023-03-08T14:10:51.121Z,8.6
2023-03-08T14:12:05.979Z,8.6
2023-03-08T14:13:13.038Z,8.7
2023-03-08T14:14:20.177Z,8.7
2023-03-08T14:15:31.907Z,8.7
2023-03-08T14:16:38.955Z,8.6
2023-03-08T14:17:45.983Z,8.5
2023-03-08T14:18:52.946Z,8.6
2023-03-08T14:20:00.112Z,8.7
2023-03-08T14:21:07.192Z,8.7
2023-03-08T14:22:25.807Z,8.6
2023-03-08T14:23:26.624Z,8.5
2023-03-08T14:24:35.113Z,8.6
2023-03-08T14:25:42.501Z,8.5
2023-03-08T14:26:52.520Z,8.5
2023-03-08T14:28:02.104Z,8.7
2023-03-08T14:29:09.988Z,8.5
2023-03-08T14:30:17.841Z,8.5
2023-03-08T14:31:24.955Z,8.5
2023-03-08T14:32:31.891Z,8.4
2023-03-08T14:33:42.378Z,8.5
2023-03-08T14:34:45.861Z,8.4
2023-03-08T14:35:53.063Z,8.4
2023-03-08T14:37:03.954Z,8.3
2023-03-08T14:38:20.346Z,8.4
2023-03-08T14:39:27.529Z,8.4
2023-03-08T14:40:36.553Z,8.2
2023-03-08T14:41:43.802Z,8.2
2023-03-08T14:42:50.953Z,8.3
2023-03-08T14:44:00.733Z,8.4
2023-03-08T14:45:07.873Z,8.4
2023-03-08T14:46:20.278Z,8.3
2023-03-08T14:47:27.370Z,8.2
2023-03-08T14:48:34.747Z,8.3
2023-03-08T14:49:41.980Z,8.3
2023-03-08T14:50:54.151Z,8.1
2023-03-08T14:52:09.472Z,8.2
2023-03-08T14:53:22.951Z,8.2
2023-03-08T14:54:29.969Z,8.2
2023-03-08T14:55:37.509Z,8.2
2023-03-08T14:56:44.569Z,8.1
2023-03-08T14:57:51.796Z,8.1
2023-03-08T14:59:09.090Z,8.1
2023-03-08T15:00:15.048Z,8.2
2023-03-08T15:01:22.385Z,8.1
2023-03-08T15:02:32.112Z,8.3
2023-03-08T15:03:39.304Z,8.2
2023-03-08T15:04:49.280Z,8.2
2023-03-08T15:05:57.412Z,8.1
2023-03-08T15:07:07.229Z,8.1
2023-03-08T15:08:22.952Z,8.1
2023-03-08T15:09:32.789Z,8.1
2023-03-08T15:10:40.079Z,8.1
2023-03-08T15:11:47.425Z,8.2
2023-03-08T15:12:54.432Z,8.2
2023-03-08T15:14:01.929Z,8.2
2023-03-08T15:15:08.845Z,8.3
2023-03-08T15:16:16.194Z,8.1
2023-03-08T15:17:23.353Z,8
2023-03-08T15:18:31.336Z,7.9
2023-03-08T15:19:38.375Z,7.9
2023-03-08T15:20:47.063Z,7.8
2023-03-08T15:21:57.039Z,7.8
2023-03-08T15:23:06.656Z,7.8
2023-03-08T15:24:17.554Z,7.7
2023-03-08T15:25:27.461Z,7.8
2023-03-08T15:26:38.150Z,7.8
2023-03-08T15:27:49.714Z,7.8
2023-03-08T15:28:55.593Z,7.8
2023-03-08T15:30:02.841Z,7.8
2023-03-08T15:31:10.890Z,7.8
2023-03-08T15:32:18.101Z,7.8
2023-03-08T15:33:25.336Z,7.9
2023-03-08T15:34:32.271Z,7.8
2023-03-08T15:35:39.410Z,7.9
2023-03-08T15:36:52.358Z,7.8
2023-03-08T15:38:01.117Z,7.8
2023-03-08T15:39:08.541Z,7.7
2023-03-08T15:40:15.606Z,7.7
2023-03-08T15:41:23.609Z,7.7
2023-03-08T15:42:36.798Z,7.7
2023-03-08T15:43:43.765Z,7.8
2023-03-08T15:44:53.392Z,7.6
2023-03-08T15:46:00.369Z,7.6
2023-03-08T15:47:09.143Z,7.5
2023-03-08T15:48:16.173Z,7.6
2023-03-08T15:49:23.261Z,7.7
2023-03-08T15:50:30.253Z,7.7
2023-03-08T15:51:40.452Z,7.6
2023-03-08T15:52:47.393Z,7.6
2023-03-08T15:53:57.398Z,7.6
2023-03-08T15:55:04.467Z,7.5
2023-03-08T15:56:15.074Z,7.5
2023-03-08T15:57:22.358Z,7.5
2023-03-08T15:58:29.418Z,7.5
2023-03-08T15:59:37.732Z,7.4
2023-03-08T16:00:44.728Z,7.4
2023-03-08T16:01:51.736Z,7.4
2023-03-08T16:03:02.265Z,7.4
2023-03-08T16:04:10.157Z,7.3
2023-03-08T16:05:17.825Z,7.3
2023-03-08T16:06:25.101Z,7.2
2023-03-08T16:07:32.187Z,7.4
2023-03-08T16:08:41.993Z,7.3
2023-03-08T16:09:49.070Z,7.3
2023-03-08T16:10:57.447Z,7.3
2023-03-08T16:12:04.481Z,7.3